Terminal Aerodrome Forecast
Issued by NWS

Home | Current Version | Previous Version | Text Only | Print | Product List | Glossary On
Versions: 1 2 3 4 5 6 7 8 9 10 11 12
000
FTUS42 KTAE 290500
TAFABY
TAF
KABY 290520Z 2906/3006 00000KT P6SM SCT250
     FM291400 15005KT P6SM SCT050 SCT250
     FM292100 17007KT P6SM VCSH SCT050 SCT250
     FM300200 VRB03KT P6SM SCT250=

USA.gov is the U.S. government's official web portal to all federal, state and local government web resources and services.